createdAt,value
2018-08-27T00:01:17.584Z,2.63
2018-08-27T00:05:20.871Z,2.80
2018-08-27T00:09:23.960Z,3.00
2018-08-27T00:13:26.947Z,4.70
2018-08-27T00:17:30.081Z,2.80
2018-08-27T00:21:33.336Z,2.77
2018-08-27T00:25:36.436Z,3.77
2018-08-27T00:29:39.674Z,3.67
2018-08-27T00:33:42.929Z,3.73
2018-08-27T00:37:46.077Z,3.80
2018-08-27T00:41:49.148Z,4.30
2018-08-27T00:45:53.228Z,4.40
2018-08-27T00:49:56.312Z,4.00
2018-08-27T00:53:59.844Z,3.50
2018-08-27T00:58:02.920Z,4.20
2018-08-27T01:02:05.836Z,4.40
2018-08-27T01:06:08.934Z,5.53
2018-08-27T01:10:12.152Z,5.33
2018-08-27T01:14:15.233Z,4.97
2018-08-27T01:18:18.456Z,5.67
2018-08-27T01:22:21.761Z,5.87
2018-08-27T01:26:24.876Z,6.03
2018-08-27T01:30:27.955Z,5.67
2018-08-27T01:34:31.436Z,5.83
2018-08-27T01:38:34.537Z,6.97
2018-08-27T01:42:37.775Z,6.13
2018-08-27T01:46:40.869Z,6.77
2018-08-27T01:50:44.311Z,5.90
2018-08-27T01:54:47.427Z,6.23
2018-08-27T01:58:51.556Z,7.47
2018-08-27T02:02:54.592Z,7.37
2018-08-27T02:06:57.828Z,8.50
2018-08-27T02:11:00.924Z,7.40
2018-08-27T02:15:04.092Z,6.37
2018-08-27T02:19:07.184Z,7.43
2018-08-27T02:23:10.839Z,7.07
2018-08-27T02:27:13.932Z,7.03
2018-08-27T02:31:17.227Z,6.90
2018-08-27T02:35:20.318Z,6.60
2018-08-27T02:39:23.861Z,7.50
2018-08-27T02:43:26.996Z,6.40
2018-08-27T02:47:30.236Z,7.20
2018-08-27T02:51:33.329Z,7.20
2018-08-27T02:55:36.565Z,7.53
2018-08-27T02:59:39.648Z,6.30
2018-08-27T03:03:42.801Z,8.23
2018-08-27T03:07:46.054Z,7.00
2018-08-27T03:11:49.236Z,6.10
2018-08-27T03:15:52.321Z,7.47
2018-08-27T03:19:55.845Z,7.27
2018-08-27T03:23:59.068Z,8.27
2018-08-27T03:28:02.192Z,7.80
2018-08-27T03:32:05.314Z,7.87
2018-08-27T03:36:08.454Z,8.50
2018-08-27T03:40:11.532Z,7.47
2018-08-27T03:44:14.702Z,8.40
2018-08-27T03:48:17.797Z,8.50
2018-08-27T03:52:21.165Z,9.03
2018-08-27T03:56:24.252Z,10.03
2018-08-27T04:00:27.477Z,10.60
2018-08-27T04:04:30.577Z,9.97
2018-08-27T04:08:33.695Z,11.10
2018-08-27T04:12:36.801Z,9.33
2018-08-27T04:16:40.006Z,8.90
2018-08-27T04:20:43.107Z,10.20
2018-08-27T04:24:46.445Z,10.93
2018-08-27T04:28:49.657Z,10.20
2018-08-27T04:32:52.789Z,13.40
2018-08-27T04:36:55.892Z,12.87
2018-08-27T04:40:59.157Z,11.37
2018-08-27T04:45:02.263Z,13.27
2018-08-27T04:49:05.420Z,13.63
2018-08-27T04:53:08.644Z,15.57
2018-08-27T04:57:11.949Z,13.60
2018-08-27T05:01:15.060Z,15.30
2018-08-27T05:05:18.517Z,16.03
2018-08-27T05:09:21.626Z,14.83
2018-08-27T05:13:24.826Z,16.40
2018-08-27T05:17:27.929Z,17.47
2018-08-27T05:21:31.161Z,17.00
2018-08-27T05:25:34.263Z,17.10
2018-08-27T05:29:37.513Z,17.93
2018-08-27T05:33:40.608Z,17.00
2018-08-27T05:37:43.832Z,18.70
2018-08-27T05:41:46.971Z,19.87
2018-08-27T05:45:50.133Z,20.33
2018-08-27T05:49:53.230Z,20.60
2018-08-27T05:53:56.371Z,19.07
2018-08-27T05:57:59.480Z,24.13
2018-08-27T06:02:02.862Z,25.50
2018-08-27T06:06:05.992Z,28.97
2018-08-27T06:10:09.311Z,34.70
2018-08-27T06:14:12.412Z,28.53
2018-08-27T06:18:15.556Z,30.17
2018-08-27T06:22:18.775Z,29.37
2018-08-27T06:26:21.861Z,25.53
2018-08-27T06:30:24.948Z,26.60
2018-08-27T06:34:27.873Z,26.23
2018-08-27T06:38:30.983Z,24.67
2018-08-27T06:42:34.129Z,23.90
2018-08-27T06:46:37.241Z,24.37
2018-08-27T06:50:40.736Z,21.33
2018-08-27T06:54:43.861Z,20.13
2018-08-27T06:58:47.017Z,17.73
2018-08-27T07:02:49.911Z,14.90
2018-08-27T07:06:53.219Z,15.50
2018-08-27T07:10:56.367Z,12.07
2018-08-27T07:14:59.500Z,10.17
2018-08-27T07:19:02.606Z,9.63
2018-08-27T07:23:05.837Z,11.53
2018-08-27T07:27:08.941Z,8.97
2018-08-27T07:31:11.938Z,18.30
2018-08-27T07:35:15.056Z,8.53
2018-08-27T07:39:18.205Z,11.23
2018-08-27T07:43:21.301Z,6.97
2018-08-27T07:47:24.435Z,5.83
2018-08-27T07:51:27.582Z,5.60
2018-08-27T07:55:30.708Z,6.40
2018-08-27T07:59:34.155Z,15.43
2018-08-27T08:03:37.384Z,11.03
2018-08-27T08:07:40.589Z,5.57
2018-08-27T08:11:43.941Z,6.73
2018-08-27T08:15:47.084Z,10.07
2018-08-27T08:19:50.210Z,6.27
2018-08-27T08:23:53.304Z,8.40
2018-08-27T08:27:56.428Z,8.60
2018-08-27T08:31:59.520Z,18.17
2018-08-27T08:36:02.655Z,16.60
2018-08-27T08:40:05.593Z,16.27
2018-08-27T08:44:08.673Z,7.13
2018-08-27T08:48:11.776Z,6.50
2018-08-27T08:52:14.988Z,7.80
2018-08-27T08:56:18.105Z,16.33
2018-08-27T09:00:21.244Z,7.33
2018-08-27T09:04:24.389Z,7.27
2018-08-27T09:08:27.707Z,5.97
2018-08-27T09:12:30.800Z,6.10
2018-08-27T09:16:34.562Z,10.40
2018-08-27T09:20:37.660Z,9.07
2018-08-27T09:24:41.087Z,8.10
2018-08-27T09:28:44.176Z,5.17
2018-08-27T09:32:47.536Z,6.83
2018-08-27T09:36:50.651Z,5.43
2018-08-27T09:40:53.795Z,7.23
2018-08-27T09:44:56.736Z,3.70
2018-08-27T09:48:59.959Z,9.73
2018-08-27T09:53:03.154Z,6.30
2018-08-27T09:57:06.384Z,10.50
2018-08-27T10:01:14.964Z,6.30
2018-08-27T10:05:18.203Z,5.20
2018-08-27T10:09:21.485Z,4.27
2018-08-27T10:13:24.713Z,4.40
2018-08-27T10:17:27.828Z,6.60
2018-08-27T10:21:31.055Z,10.17
2018-08-27T10:25:34.184Z,6.40
2018-08-27T10:29:37.397Z,9.27
2018-08-27T10:33:40.488Z,6.67
2018-08-27T10:37:43.616Z,8.07
2018-08-27T10:41:46.717Z,5.57
2018-08-27T10:45:49.904Z,6.57
2018-08-27T10:49:53.146Z,11.07
2018-08-27T10:53:56.348Z,4.73
2018-08-27T10:57:59.429Z,7.03
2018-08-27T11:02:02.736Z,5.43
2018-08-27T11:06:05.826Z,7.80
2018-08-27T11:10:09.296Z,5.10
2018-08-27T11:14:12.396Z,5.43
2018-08-27T11:18:15.544Z,3.53
2018-08-27T11:22:18.665Z,8.47
2018-08-27T11:26:21.979Z,4.43
2018-08-27T11:30:25.001Z,7.33
2018-08-27T11:34:28.237Z,7.80
2018-08-27T11:38:31.329Z,6.93
2018-08-27T11:42:34.464Z,4.63
2018-08-27T11:46:37.628Z,4.97
2018-08-27T11:50:40.884Z,6.30
2018-08-27T11:54:43.847Z,6.30
2018-08-27T12:02:56.702Z,7.60
2018-08-27T12:06:59.917Z,7.47
2018-08-27T12:11:03.421Z,5.50
2018-08-27T12:15:06.920Z,3.10
2018-08-27T12:19:10.081Z,5.73
2018-08-27T12:23:13.313Z,5.93
2018-08-27T12:27:16.415Z,5.20
2018-08-27T12:31:19.645Z,7.97
2018-08-27T12:35:22.743Z,3.50
2018-08-27T12:39:25.868Z,3.43
2018-08-27T12:43:28.996Z,5.60
2018-08-27T12:47:32.206Z,6.27
2018-08-27T12:51:35.288Z,5.17
2018-08-27T12:55:38.420Z,5.03
2018-08-27T12:59:42.055Z,7.03
2018-08-27T13:03:45.285Z,9.53
2018-08-27T13:07:48.431Z,6.73
2018-08-27T13:11:51.704Z,5.63
2018-08-27T13:15:54.791Z,3.70
2018-08-27T13:19:57.909Z,21.63
2018-08-27T13:24:00.998Z,5.73
2018-08-27T13:28:04.181Z,8.33
2018-08-27T13:32:07.260Z,6.30
2018-08-27T13:36:10.451Z,9.70
2018-08-27T13:40:13.583Z,8.60
2018-08-27T13:44:16.717Z,7.67
2018-08-27T13:48:19.786Z,9.03
2018-08-27T13:52:23.320Z,7.27
2018-08-27T13:56:26.469Z,9.17
2018-08-27T14:00:29.776Z,7.90
2018-08-27T14:04:32.776Z,6.60
2018-08-27T14:08:35.964Z,8.87
2018-08-27T14:12:39.284Z,8.47
2018-08-27T14:16:42.341Z,7.90
2018-08-27T14:20:45.483Z,7.37
2018-08-27T14:24:48.641Z,8.97
2018-08-27T14:28:51.792Z,8.10
2018-08-27T14:32:54.994Z,5.77
2018-08-27T14:36:57.996Z,6.83
2018-08-27T14:41:01.179Z,6.27
2018-08-27T14:45:04.372Z,4.87
2018-08-27T14:49:07.448Z,8.23
2018-08-27T14:53:10.536Z,9.63
2018-08-27T14:57:13.644Z,7.10
2018-08-27T15:01:19.700Z,6.30
2018-08-27T15:05:22.829Z,7.30
2018-08-27T15:09:26.005Z,6.43
2018-08-27T15:13:29.260Z,7.37
2018-08-27T15:17:32.359Z,6.40
2018-08-27T15:21:35.559Z,5.33
2018-08-27T15:25:38.980Z,5.97
2018-08-27T15:29:42.112Z,4.50
2018-08-27T15:33:45.208Z,7.10
2018-08-27T15:37:48.348Z,4.77
2018-08-27T15:41:51.442Z,6.13
2018-08-27T15:45:59.973Z,8.73
2018-08-27T15:50:03.105Z,9.10
2018-08-27T15:54:06.548Z,7.47
2018-08-27T15:58:09.703Z,10.43
2018-08-27T16:02:12.840Z,9.30
2018-08-27T16:06:15.940Z,5.40
2018-08-27T16:10:19.462Z,6.97
2018-08-27T16:14:22.648Z,4.50
2018-08-27T16:18:26.168Z,7.60
2018-08-27T16:22:29.252Z,5.33
2018-08-27T16:26:32.500Z,8.87
2018-08-27T16:30:35.589Z,9.87
2018-08-27T16:34:38.879Z,8.80
2018-08-27T16:38:41.952Z,7.03
2018-08-27T16:42:45.089Z,5.83
2018-08-27T16:46:48.168Z,5.40
2018-08-27T16:50:51.780Z,2.73
2018-08-27T16:54:54.876Z,6.40
2018-08-27T16:58:58.047Z,4.50
2018-08-27T17:03:01.169Z,6.00
2018-08-27T17:07:04.752Z,7.47
2018-08-27T17:11:07.828Z,2.40
2018-08-27T17:15:11.100Z,5.60
2018-08-27T17:19:14.213Z,6.00
2018-08-27T17:23:17.366Z,3.30
2018-08-27T17:27:20.493Z,7.50
2018-08-27T17:31:23.801Z,5.80
2018-08-27T17:35:26.885Z,4.20
2018-08-27T17:39:30.352Z,8.10
2018-08-27T17:43:33.368Z,4.20
2018-08-27T17:47:36.722Z,4.97
2018-08-27T17:51:39.831Z,5.27
2018-08-27T17:55:42.833Z,2.87
2018-08-27T17:59:46.000Z,5.20
2018-08-27T18:03:49.134Z,3.87
2018-08-27T18:07:52.245Z,4.23
2018-08-27T18:11:55.364Z,6.13
2018-08-27T18:15:58.808Z,4.07
2018-08-27T18:20:01.949Z,10.17
2018-08-27T18:24:05.024Z,3.60
2018-08-27T18:28:08.782Z,2.60
2018-08-27T18:32:11.993Z,2.90
2018-08-27T18:36:15.140Z,5.93
2018-08-27T18:40:18.826Z,5.77
2018-08-27T18:44:21.989Z,7.10
2018-08-27T18:48:25.169Z,3.77
2018-08-27T18:52:28.360Z,5.27
2018-08-27T18:56:32.000Z,5.47
2018-08-27T19:00:35.335Z,3.30
2018-08-27T19:04:39.016Z,5.13
2018-08-27T19:08:42.205Z,2.77
2018-08-27T19:12:45.319Z,6.33
2018-08-27T19:16:48.273Z,3.03
2018-08-27T19:20:51.435Z,3.43
2018-08-27T19:24:54.656Z,4.30
2018-08-27T19:28:57.881Z,2.13
2018-08-27T19:33:01.096Z,4.80
2018-08-27T19:37:04.084Z,2.90
2018-08-27T19:41:07.289Z,6.33
2018-08-27T19:45:10.181Z,3.90
2018-08-27T19:49:13.386Z,4.93
2018-08-27T19:53:16.601Z,2.67
2018-08-27T19:57:19.786Z,4.17
2018-08-27T20:01:22.881Z,3.77
2018-08-27T20:05:26.112Z,5.70
2018-08-27T20:09:29.304Z,5.03
2018-08-27T20:13:32.438Z,2.23
2018-08-27T20:17:35.517Z,3.33
2018-08-27T20:21:38.793Z,2.67
2018-08-27T20:25:41.965Z,6.20
2018-08-27T20:29:45.051Z,5.03
2018-08-27T20:33:48.281Z,4.70
2018-08-27T20:37:51.540Z,7.80
2018-08-27T20:41:54.628Z,3.70
2018-08-27T20:45:57.892Z,6.00
2018-08-27T20:50:00.990Z,4.60
2018-08-27T20:54:04.128Z,5.17
2018-08-27T20:58:07.204Z,3.40
2018-08-27T21:02:10.429Z,3.53
2018-08-27T21:06:13.507Z,4.33
2018-08-27T21:10:16.729Z,6.67
2018-08-27T21:15:02.740Z,5.00
2018-08-27T21:19:05.905Z,3.97
2018-08-27T21:23:08.984Z,7.33
2018-08-27T21:27:18.716Z,4.43
2018-08-27T21:31:22.263Z,3.90
2018-08-27T21:35:25.470Z,4.23
2018-08-27T21:39:28.545Z,7.20
2018-08-27T21:43:31.668Z,3.63
2018-08-27T21:47:34.756Z,8.93
2018-08-27T21:51:37.980Z,5.00
2018-08-27T21:55:41.082Z,3.60
2018-08-27T21:59:44.232Z,4.83
2018-08-27T22:03:52.643Z,5.67
2018-08-27T22:07:55.894Z,4.33
2018-08-27T22:11:58.980Z,7.17
2018-08-27T22:16:02.208Z,4.50
2018-08-27T22:20:05.764Z,4.30
2018-08-27T22:24:08.882Z,5.80
2018-08-27T22:28:11.996Z,10.10
2018-08-27T22:32:15.109Z,6.80
2018-08-27T22:36:18.312Z,6.30
2018-08-27T22:40:21.428Z,11.83
2018-08-27T22:44:24.540Z,4.10
2018-08-27T22:48:27.678Z,5.03
2018-08-27T22:52:30.542Z,5.70
2018-08-27T22:56:33.459Z,4.50
2018-08-27T23:00:36.552Z,6.07
2018-08-27T23:04:45.129Z,5.03
2018-08-27T23:08:48.200Z,7.13
2018-08-27T23:12:51.671Z,9.27
2018-08-27T23:16:54.756Z,6.60
2018-08-27T23:20:57.887Z,4.40
2018-08-27T23:25:00.987Z,6.23
2018-08-27T23:29:04.253Z,4.90
2018-08-27T23:33:07.344Z,6.57
2018-08-27T23:37:10.776Z,5.87
2018-08-27T23:41:13.879Z,8.60
2018-08-27T23:45:17.021Z,7.03
2018-08-27T23:49:20.097Z,6.60
2018-08-27T23:53:23.305Z,4.77
2018-08-27T23:57:26.444Z,8.50
